Time;durP1;ratioP1;P1;durP2;ratioP2;P2;SDS_P1;SDS_P2;PMS_P1;PMS_P2;Temp;Humidity;BMP_temperature;BMP_pressure;BME280_temperature;BME280_humidity;BME280_pressure;Samples;Min_cycle;Max_cycle;Signal;HPM_P1;HPM_P2
2022/01/06 00:01:03;;;;;;;;;;;;;;;12.26;67.38;99799.78;5078135;28;19913;-79
2022/01/06 00:03:48;;;;;;;;;;;;;;;12.35;68.19;99817.56;5075863;28;19912;-80
2022/01/06 00:06:38;;;;;;;;;;;;;;;12.38;68.26;99821.53;5079438;28;19912;-80
2022/01/06 00:09:22;;;;;;;;;;;;;;;12.35;66.66;99831.19;5078428;28;19916;-80
2022/01/06 00:12:10;;;;;;;;;;;;;;;12.40;66.62;99838.34;5076752;28;19916;-80
2022/01/06 00:15:09;;;;;;;;;;;;;;;12.38;62.57;99854.25;5079774;28;19913;-80
2022/01/06 00:23:47;;;;;;;;;;;;;;;12.33;58.03;99868.16;5078463;28;20385;-80
2022/01/06 00:26:32;;;;;;;;;;;;;;;12.10;57.90;99867.09;5075764;28;20308;-79
2022/01/06 00:29:16;;;;;;;;;;;;;;;12.09;56.81;99871.72;5059706;28;19916;-79
2022/01/06 00:32:01;;;;;;;;;;;;;;;12.15;56.86;99873.09;5078896;28;20402;-79
2022/01/06 00:34:45;;;;;;;;;;;;;;;12.03;55.43;99873.13;5077185;28;19912;-79
2022/01/06 00:37:29;;;;;;;;;;;;;;;11.88;56.42;99873.88;5073876;28;20292;-79
2022/01/06 00:40:14;;;;;;;;;;;;;;;11.79;56.14;99893.03;5077970;28;20372;-78
2022/01/06 00:42:58;;;;;;;;;;;;;;;11.58;55.90;99900.53;5075798;28;20292;-77
2022/01/06 00:45:43;;;;;;;;;;;;;;;11.47;56.26;99896.69;5074177;28;19912;-79
2022/01/06 00:48:27;;;;;;;;;;;;;;;11.37;56.39;99894.44;5077337;28;19912;-79
2022/01/06 00:51:12;;;;;;;;;;;;;;;11.24;55.89;99898.25;5075349;28;19916;-79
2022/01/06 00:53:56;;;;;;;;;;;;;;;11.08;56.20;99912.53;5072707;28;19916;-79
2022/01/06 00:56:41;;;;;;;;;;;;;;;11.18;55.96;99921.38;5076728;28;19938;-78
2022/01/06 00:59:25;;;;;;;;;;;;;;;10.90;55.99;99915.78;5075704;28;19912;-79
2022/01/06 01:02:10;;;;;;;;;;;;;;;10.75;56.65;99919.16;5074764;28;19912;-81
2022/01/06 01:04:54;;;;;;;;;;;;;;;10.71;56.46;99938.06;5077352;28;19912;-79
2022/01/06 01:07:38;;;;;;;;;;;;;;;10.76;57.54;99946.00;5075626;28;19912;-80
2022/01/06 01:10:23;;;;;;;;;;;;;;;10.85;57.54;99962.25;5073685;28;19917;-80
2022/01/06 01:13:12;;;;;;;;;;;;;;;10.93;58.92;99973.03;5077012;28;20316;-79
2022/01/06 01:16:00;;;;;;;;;;;;;;;10.95;56.40;99968.06;5093950;28;19916;-79
2022/01/06 01:18:45;;;;;;;;;;;;;;;10.93;56.50;99983.91;5090244;28;19912;-79
2022/01/06 01:21:30;;;;;;;;;;;;;;;10.84;57.47;99991.34;5088110;28;19912;-79
2022/01/06 01:24:15;;;;;;;;;;;;;;;10.87;56.72;99996.13;5075548;28;19912;-80
2022/01/06 01:26:59;;;;;;;;;;;;;;;10.76;56.08;100000.41;5073640;28;20377;-79
2022/01/06 01:29:58;;;;;;;;;;;;;;;10.79;56.89;100001.66;5071873;28;19920;-79
2022/01/06 01:32:50;;;;;;;;;;;;;;;10.58;58.67;100013.34;5067948;28;20400;-79
2022/01/06 01:35:35;;;;;;;;;;;;;;;10.49;59.84;100009.91;5072429;28;19912;-80
2022/01/06 01:38:19;;;;;;;;;;;;;;;10.35;57.98;100019.44;5076293;28;19912;-79
2022/01/06 01:41:04;;;;;;;;;;;;;;;10.33;56.85;100025.19;5075141;28;19912;-78
2022/01/06 01:43:50;;;;;;;;;;;;;;;10.59;57.06;100031.25;5072998;28;19912;-79
2022/01/06 01:46:42;;;;;;;;;;;;;;;10.53;57.08;100026.31;5076255;28;19912;-78
2022/01/06 01:49:32;;;;;;;;;;;;;;;10.60;56.38;100032.84;5075023;28;19917;-79
2022/01/06 01:52:17;;;;;;;;;;;;;;;10.60;57.47;100034.75;5072389;28;19924;-78
2022/01/06 01:55:01;;;;;;;;;;;;;;;10.59;57.84;100047.56;5076882;28;19912;-78
2022/01/06 01:57:46;;;;;;;;;;;;;;;10.57;60.32;100046.28;5072911;28;19917;-79
2022/01/06 02:00:31;;;;;;;;;;;;;;;10.70;61.50;100053.41;5072857;28;19916;-77
2022/01/06 02:03:16;;;;;;;;;;;;;;;10.59;62.16;100054.91;5075724;28;19921;-79
2022/01/06 02:06:00;;;;;;;;;;;;;;;10.84;63.67;100059.34;5074657;28;19912;-79
2022/01/06 02:08:45;;;;;;;;;;;;;;;10.88;63.47;100063.00;5072992;28;19913;-80
2022/01/06 02:11:29;;;;;;;;;;;;;;;10.80;60.93;100068.50;5076978;28;19916;-79
2022/01/06 02:14:14;;;;;;;;;;;;;;;10.84;62.95;100075.66;5075158;28;19913;-79
2022/01/06 02:16:58;;;;;;;;;;;;;;;10.86;63.45;100081.59;5072887;28;19912;-80
2022/01/06 02:19:56;;;;;;;;;;;;;;;10.66;62.72;100087.81;5077321;28;19912;-79
2022/01/06 02:22:41;;;;;;;;;;;;;;;10.73;65.05;100094.31;5070156;28;19912;-80
2022/01/06 02:25:27;;;;;;;;;;;;;;;10.71;63.86;100103.94;5073570;28;19912;-79
2022/01/06 02:28:12;;;;;;;;;;;;;;;10.71;64.32;100098.50;5072215;28;19912;-79
2022/01/06 02:30:58;;;;;;;;;;;;;;;10.55;61.55;100094.78;5075649;28;19920;-78
2022/01/06 02:33:42;;;;;;;;;;;;;;;10.33;59.78;100095.06;5073108;28;19912;-79
2022/01/06 02:36:27;;;;;;;;;;;;;;;10.40;61.34;100092.63;5073896;28;19912;-80
2022/01/06 02:39:11;;;;;;;;;;;;;;;10.35;59.94;100106.41;5074354;28;20296;-79
2022/01/06 02:41:56;;;;;;;;;;;;;;;10.16;60.64;100107.59;5072608;28;19913;-79
2022/01/06 02:44:40;;;;;;;;;;;;;;;10.15;60.20;100107.91;5071124;28;19916;-79
2022/01/06 02:47:25;;;;;;;;;;;;;;;10.02;59.83;100107.00;5073630;28;20297;-79
2022/01/06 02:50:10;;;;;;;;;;;;;;;10.18;58.14;100116.22;5074512;28;19916;-79
2022/01/06 02:52:54;;;;;;;;;;;;;;;10.08;58.17;100107.63;5074801;28;19916;-79
2022/01/06 02:55:41;;;;;;;;;;;;;;;10.13;58.83;100116.38;5079006;28;19912;-79
2022/01/06 02:58:26;;;;;;;;;;;;;;;10.12;58.75;100114.78;5078117;28;19912;-79
2022/01/06 03:01:10;;;;;;;;;;;;;;;10.06;58.64;100121.50;5075661;28;19912;-80
2022/01/06 03:03:55;;;;;;;;;;;;;;;10.18;58.81;100135.25;5079573;28;19912;-79
2022/01/06 03:06:40;;;;;;;;;;;;;;;10.17;57.05;100139.09;5077733;28;19912;-79
2022/01/06 03:09:36;;;;;;;;;;;;;;;10.15;57.44;100146.75;5075745;28;20380;-79
2022/01/06 03:12:26;;;;;;;;;;;;;;;10.04;57.64;100152.84;5078790;28;19916;-80
2022/01/06 03:15:18;;;;;;;;;;;;;;;10.16;59.29;100153.78;5076864;28;20376;-79
2022/01/06 03:18:03;;;;;;;;;;;;;;;10.28;60.14;100166.69;5075597;28;20309;-78
2022/01/06 03:20:47;;;;;;;;;;;;;;;10.32;60.64;100161.38;5072149;28;19979;-79
2022/01/06 03:23:32;;;;;;;;;;;;;;;10.38;62.19;100171.75;5076670;28;20381;-79
2022/01/06 03:26:16;;;;;;;;;;;;;;;10.16;61.99;100180.16;5080362;28;19912;-79
2022/01/06 03:29:00;;;;;;;;;;;;;;;10.22;61.68;100190.53;5079197;28;19988;-79
2022/01/06 03:31:45;;;;;;;;;;;;;;;10.27;58.40;100194.97;5076037;28;19916;-79
2022/01/06 03:34:30;;;;;;;;;;;;;;;10.17;59.15;100196.13;5074539;28;19913;-78
2022/01/06 03:37:15;;;;;;;;;;;;;;;10.02;61.20;100196.63;5075291;28;19912;-78
2022/01/06 03:40:04;;;;;;;;;;;;;;;10.17;58.90;100204.28;5076986;28;19913;-79
2022/01/06 03:42:49;;;;;;;;;;;;;;;10.26;63.32;100213.19;5074078;28;20191;-79
2022/01/06 03:45:34;;;;;;;;;;;;;;;10.40;66.00;100206.78;5077914;28;19912;-79
2022/01/06 03:48:19;;;;;;;;;;;;;;;10.42;66.29;100218.91;5076879;28;19912;-79
2022/01/06 03:51:03;;;;;;;;;;;;;;;10.40;65.64;100221.16;5074207;28;19916;-79
2022/01/06 03:53:47;;;;;;;;;;;;;;;10.37;65.58;100229.94;5078798;28;19916;-79
2022/01/06 03:56:31;;;;;;;;;;;;;;;10.40;63.94;100232.03;5076561;28;19916;-79
2022/01/06 03:59:16;;;;;;;;;;;;;;;10.50;66.45;100231.69;5074922;28;19916;-79
2022/01/06 04:02:01;;;;;;;;;;;;;;;10.59;68.15;100237.88;5077403;28;19924;-78
2022/01/06 04:04:45;;;;;;;;;;;;;;;10.61;68.52;100235.63;5076513;28;19913;-78
2022/01/06 04:07:29;;;;;;;;;;;;;;;10.75;70.77;100235.41;5074667;28;19912;-79
2022/01/06 04:10:14;;;;;;;;;;;;;;;10.75;71.15;100232.69;5078320;28;19920;-78
2022/01/06 04:12:58;;;;;;;;;;;;;;;10.85;72.05;100245.09;5076383;28;19913;-80
2022/01/06 04:15:44;;;;;;;;;;;;;;;10.84;72.87;100241.59;5074826;28;20377;-77
2022/01/06 04:18:29;;;;;;;;;;;;;;;10.83;72.05;100242.69;5079026;28;19912;-79
2022/01/06 04:21:13;;;;;;;;;;;;;;;10.92;72.88;100246.16;5076510;28;19912;-79
2022/01/06 04:23:58;;;;;;;;;;;;;;;10.77;71.53;100246.72;5074581;28;19917;-78
2022/01/06 04:26:42;;;;;;;;;;;;;;;10.83;72.42;100248.13;5073165;28;20190;-78
2022/01/06 04:29:26;;;;;;;;;;;;;;;10.95;73.54;100256.41;5077219;28;19912;-80
2022/01/06 04:32:11;;;;;;;;;;;;;;;11.01;74.18;100259.75;5075127;28;19917;-79
2022/01/06 04:34:55;;;;;;;;;;;;;;;10.85;72.34;100264.94;5072921;28;19916;-79
2022/01/06 04:37:40;;;;;;;;;;;;;;;10.95;73.23;100275.44;5073144;28;19912;-79
2022/01/06 04:40:24;;;;;;;;;;;;;;;10.99;73.45;100268.22;5075608;28;19913;-79
2022/01/06 04:43:08;;;;;;;;;;;;;;;10.93;72.95;100277.69;5073152;28;19912;-79
2022/01/06 04:45:53;;;;;;;;;;;;;;;10.88;72.79;100280.59;5077702;28;19912;-78
2022/01/06 04:48:37;;;;;;;;;;;;;;;10.86;70.97;100268.47;5075481;28;19917;-79
2022/01/06 04:51:22;;;;;;;;;;;;;;;10.91;71.30;100282.69;5073857;28;20376;-78
2022/01/06 04:54:06;;;;;;;;;;;;;;;11.00;71.86;100294.31;5077648;28;20300;-77
2022/01/06 04:56:51;;;;;;;;;;;;;;;10.87;69.94;100303.47;5075962;28;20312;-77
2022/01/06 04:59:36;;;;;;;;;;;;;;;11.01;71.62;100303.28;5074333;28;19912;-77
2022/01/06 05:02:20;;;;;;;;;;;;;;;11.07;72.93;100308.19;5096404;28;19912;-76
2022/01/06 05:05:05;;;;;;;;;;;;;;;11.07;73.03;100302.75;5095841;28;19912;-77
2022/01/06 05:07:49;;;;;;;;;;;;;;;11.09;72.20;100307.84;5093643;28;20300;-76
2022/01/06 05:10:33;;;;;;;;;;;;;;;11.15;74.01;100317.44;5092571;28;19920;-77
2022/01/06 05:13:18;;;;;;;;;;;;;;;11.14;74.34;100319.34;5075381;28;19916;-77
2022/01/06 05:16:03;;;;;;;;;;;;;;;11.15;74.53;100326.41;5074936;28;19931;-77
2022/01/06 05:18:47;;;;;;;;;;;;;;;11.14;74.24;100341.13;5072751;28;19916;-77
2022/01/06 05:21:33;;;;;;;;;;;;;;;11.02;73.37;100343.72;5076182;28;20297;-77
2022/01/06 05:24:18;;;;;;;;;;;;;;;10.99;72.81;100344.41;5074641;28;19916;-77
2022/01/06 05:27:04;;;;;;;;;;;;;;;11.10;74.21;100353.78;5072180;28;20300;-77
2022/01/06 05:29:48;;;;;;;;;;;;;;;11.13;74.26;100350.41;5076159;28;20372;-77
2022/01/06 05:32:33;;;;;;;;;;;;;;;11.17;74.54;100356.00;5074194;28;20316;-77
2022/01/06 05:35:18;;;;;;;;;;;;;;;11.14;74.55;100351.22;5072401;28;19920;-77
2022/01/06 05:38:02;;;;;;;;;;;;;;;11.07;74.08;100356.38;5073429;28;19912;-77
2022/01/06 05:40:47;;;;;;;;;;;;;;;11.03;74.09;100358.94;5074744;28;19912;-77
2022/01/06 05:43:31;;;;;;;;;;;;;;;11.11;74.40;100363.56;5065669;28;19916;-76
2022/01/06 05:46:16;;;;;;;;;;;;;;;11.14;73.51;100367.53;5077177;28;19912;-77
2022/01/06 05:49:00;;;;;;;;;;;;;;;11.17;74.80;100374.25;5075421;28;19912;-77
2022/01/06 05:51:44;;;;;;;;;;;;;;;11.21;74.69;100384.16;5072375;28;19916;-77
2022/01/06 05:54:29;;;;;;;;;;;;;;;11.14;72.24;100390.13;5076473;28;19913;-77
2022/01/06 05:57:15;;;;;;;;;;;;;;;11.08;73.38;100383.25;5074506;28;19913;-77
2022/01/06 06:00:00;;;;;;;;;;;;;;;11.17;74.12;100377.78;5073172;28;20372;-76
2022/01/06 06:02:44;;;;;;;;;;;;;;;11.17;74.13;100382.44;5077360;28;19912;-77
2022/01/06 06:05:29;;;;;;;;;;;;;;;11.15;73.15;100394.44;5074979;28;19912;-77
2022/01/06 06:08:13;;;;;;;;;;;;;;;11.21;74.15;100394.25;5071959;28;19913;-77
2022/01/06 06:10:58;;;;;;;;;;;;;;;11.22;74.10;100391.22;5077014;28;19916;-77
2022/01/06 06:13:42;;;;;;;;;;;;;;;11.27;74.83;100393.75;5075540;28;20376;-77
2022/01/06 06:16:27;;;;;;;;;;;;;;;11.29;74.95;100396.94;5074098;28;19912;-77
2022/01/06 06:19:12;;;;;;;;;;;;;;;11.29;72.56;100402.38;5077047;28;19916;-76
2022/01/06 06:21:56;;;;;;;;;;;;;;;11.29;72.24;100407.81;5075159;28;19912;-77
2022/01/06 06:24:40;;;;;;;;;;;;;;;11.30;72.13;100411.34;5074487;28;20281;-77
2022/01/06 06:27:25;;;;;;;;;;;;;;;11.29;72.80;100412.44;5075784;28;19931;-76
2022/01/06 06:30:09;;;;;;;;;;;;;;;11.29;70.75;100413.25;5079687;28;19945;-77
2022/01/06 06:32:54;;;;;;;;;;;;;;;11.24;69.45;100412.63;5077818;28;19913;-76
2022/01/06 06:35:38;;;;;;;;;;;;;;;11.30;73.13;100416.78;5075864;28;20295;-76
2022/01/06 06:38:23;;;;;;;;;;;;;;;11.10;70.37;100419.09;5079520;28;19912;-77
2022/01/06 06:41:07;;;;;;;;;;;;;;;11.09;71.28;100414.78;5077687;28;20384;-76
2022/01/06 06:43:51;;;;;;;;;;;;;;;11.11;71.12;100420.72;5075378;28;20288;-76
2022/01/06 06:46:35;;;;;;;;;;;;;;;10.99;71.44;100417.06;5079574;28;19912;-77
2022/01/06 06:49:20;;;;;;;;;;;;;;;10.92;72.26;100425.72;5078244;28;19912;-77
2022/01/06 06:52:04;;;;;;;;;;;;;;;10.85;71.93;100424.63;5076700;28;20377;-77
2022/01/06 06:54:49;;;;;;;;;;;;;;;10.86;69.89;100424.31;5080096;28;20368;-77
2022/01/06 06:57:33;;;;;;;;;;;;;;;11.00;73.85;100433.06;5081844;28;19911;-77
2022/01/06 07:00:17;;;;;;;;;;;;;;;10.91;72.42;100424.13;5085487;28;19915;-76
2022/01/06 07:03:02;;;;;;;;;;;;;;;10.88;72.65;100430.22;5100385;28;19912;-76
2022/01/06 07:05:46;;;;;;;;;;;;;;;10.93;73.62;100430.03;5091760;28;19911;-77
2022/01/06 07:08:31;;;;;;;;;;;;;;;10.86;72.09;100426.22;5096654;28;19916;-77
2022/01/06 07:11:15;;;;;;;;;;;;;;;10.88;73.21;100429.41;5085896;28;19924;-76
2022/01/06 07:14:00;;;;;;;;;;;;;;;10.90;70.98;100443.50;5098678;28;19912;-77
2022/01/06 07:16:44;;;;;;;;;;;;;;;10.95;73.83;100433.25;5096718;28;19912;-76
2022/01/06 07:19:29;;;;;;;;;;;;;;;10.93;69.90;100435.47;5094727;28;20380;-77
2022/01/06 07:22:14;;;;;;;;;;;;;;;10.98;73.81;100435.28;5098991;28;19912;-77
2022/01/06 07:24:59;;;;;;;;;;;;;;;10.84;73.16;100442.84;5093019;28;19915;-77
2022/01/06 07:27:44;;;;;;;;;;;;;;;10.85;74.36;100449.09;5084599;28;19912;-77
2022/01/06 07:30:30;;;;;;;;;;;;;;;10.86;74.56;100450.72;5078408;28;19916;-77
2022/01/06 07:33:14;;;;;;;;;;;;;;;10.61;72.47;100455.06;5088233;28;20380;-77
2022/01/06 07:35:58;;;;;;;;;;;;;;;10.81;73.89;100454.41;5080622;28;19916;-77
2022/01/06 07:38:43;;;;;;;;;;;;;;;10.75;72.62;100461.13;5088367;28;19911;-76
2022/01/06 07:41:27;;;;;;;;;;;;;;;10.80;73.01;100463.69;5082220;28;19912;-77
2022/01/06 07:44:12;;;;;;;;;;;;;;;10.67;71.97;100472.78;5085887;28;19912;-77
2022/01/06 07:46:56;;;;;;;;;;;;;;;10.92;73.88;100482.06;5080830;28;19912;-77
2022/01/06 07:49:41;;;;;;;;;;;;;;;10.95;74.58;100484.13;5088725;28;19912;-77
2022/01/06 07:52:25;;;;;;;;;;;;;;;11.00;71.96;100484.75;5091615;28;19916;-77
2022/01/06 07:55:09;;;;;;;;;;;;;;;9.09;61.20;100486.63;5092778;28;19912;-78
2022/01/06 07:57:54;;;;;;;;;;;;;;;7.77;65.17;100485.34;5081825;28;20380;-79
2022/01/06 08:00:39;;;;;;;;;;;;;;;6.97;68.35;100493.84;5097648;28;19915;-78
2022/01/06 08:03:23;;;;;;;;;;;;;;;6.41;71.06;100500.16;5081922;28;19912;-79
2022/01/06 08:06:08;;;;;;;;;;;;;;;6.09;71.02;100505.47;5079585;28;20304;-79
2022/01/06 08:08:52;;;;;;;;;;;;;;;6.47;70.04;100507.09;5077272;28;19912;-78
2022/01/06 08:11:37;;;;;;;;;;;;;;;6.37;70.29;100510.75;5087466;28;19919;-78
2022/01/06 08:14:21;;;;;;;;;;;;;;;6.61;69.23;100512.53;5072338;28;19912;-80
2022/01/06 08:17:05;;;;;;;;;;;;;;;6.47;70.44;100512.47;5077652;28;20297;-79
2022/01/06 08:19:51;;;;;;;;;;;;;;;6.60;70.43;100510.97;5077293;28;20377;-79
2022/01/06 08:22:36;;;;;;;;;;;;;;;6.35;71.09;100525.63;5096135;28;19932;-79
2022/01/06 08:25:21;;;;;;;;;;;;;;;5.78;72.60;100524.72;5085573;28;19912;-77
2022/01/06 08:28:05;;;;;;;;;;;;;;;5.79;72.82;100539.00;5075139;28;19912;-79
2022/01/06 08:30:50;;;;;;;;;;;;;;;6.28;71.62;100538.69;5073571;28;20300;-77
2022/01/06 08:33:34;;;;;;;;;;;;;;;6.11;72.18;100546.47;5075199;28;20288;-79
2022/01/06 08:36:19;;;;;;;;;;;;;;;6.37;71.18;100542.34;5077191;28;20308;-78
2022/01/06 08:39:03;;;;;;;;;;;;;;;6.61;69.92;100550.38;5079403;28;19916;-79
2022/01/06 08:41:49;;;;;;;;;;;;;;;6.84;70.53;100549.47;5084973;28;19912;-78
2022/01/06 08:44:34;;;;;;;;;;;;;;;6.59;70.09;100547.16;5084102;28;19912;-79
2022/01/06 08:47:18;;;;;;;;;;;;;;;6.78;70.20;100556.88;5075359;28;19912;-78
2022/01/06 08:50:03;;;;;;;;;;;;;;;6.97;68.52;100559.53;5083970;28;20520;-78
2022/01/06 08:52:48;;;;;;;;;;;;;;;6.93;69.54;100563.94;5078092;28;19915;-78
2022/01/06 08:55:35;;;;;;;;;;;;;;;7.28;68.12;100565.25;5085245;28;20407;-79
2022/01/06 08:58:19;;;;;;;;;;;;;;;6.99;69.23;100556.53;5083116;28;19915;-79
2022/01/06 09:01:04;;;;;;;;;;;;;;;7.07;68.73;100561.25;5076365;28;19913;-78
2022/01/06 09:03:48;;;;;;;;;;;;;;;6.54;69.37;100553.44;5070884;28;19911;-79
2022/01/06 09:06:32;;;;;;;;;;;;;;;6.16;71.41;100554.50;5071036;28;20293;-79
2022/01/06 09:09:17;;;;;;;;;;;;;;;6.04;72.13;100556.81;5077318;28;19913;-79
2022/01/06 09:12:02;;;;;;;;;;;;;;;6.16;71.64;100568.81;5090947;28;19916;-78
2022/01/06 09:14:46;;;;;;;;;;;;;;;6.21;71.32;100576.03;5082679;28;20397;-79
2022/01/06 09:17:35;;;;;;;;;;;;;;;6.20;72.83;100574.41;5081100;28;20308;-79
2022/01/06 09:20:19;;;;;;;;;;;;;;;6.51;71.07;100578.31;5082768;28;20276;-79
2022/01/06 09:23:04;;;;;;;;;;;;;;;6.14;71.55;100583.69;5079818;28;19912;-79
2022/01/06 09:25:49;;;;;;;;;;;;;;;7.60;72.80;100583.34;5087200;28;19916;-79
2022/01/06 09:28:33;;;;;;;;;;;;;;;7.39;70.46;100587.50;5075010;28;19912;-80
2022/01/06 09:31:17;;;;;;;;;;;;;;;8.84;69.98;100590.28;5088114;28;19916;-78
2022/01/06 09:34:02;;;;;;;;;;;;;;;9.95;64.31;100595.63;5097873;28;19912;-79
2022/01/06 09:36:47;;;;;;;;;;;;;;;10.47;61.03;100598.50;5099275;28;19917;-75
2022/01/06 09:39:32;;;;;;;;;;;;;;;10.68;57.71;100597.56;5100136;28;19912;-78
2022/01/06 09:42:17;;;;;;;;;;;;;;;11.30;58.39;100591.00;5095035;28;19912;-80
2022/01/06 09:45:03;;;;;;;;;;;;;;;11.22;56.60;100598.06;5093291;28;19912;-79
2022/01/06 09:47:49;;;;;;;;;;;;;;;11.37;55.09;100594.03;5084923;28;20320;-79
2022/01/06 09:50:33;;;;;;;;;;;;;;;11.71;55.78;100593.94;5070774;28;19913;-79
2022/01/06 09:53:21;;;;;;;;;;;;;;;12.12;53.94;100597.97;5081431;28;19917;-78
2022/01/06 09:56:05;;;;;;;;;;;;;;;11.95;52.88;100590.66;5088170;28;19912;-83
2022/01/06 09:58:50;;;;;;;;;;;;;;;11.55;53.93;100596.38;5097073;28;19912;-79
2022/01/06 10:01:35;;;;;;;;;;;;;;;11.97;53.49;100596.59;5075494;28;20372;-78
2022/01/06 10:04:24;;;;;;;;;;;;;;;11.88;53.70;100601.28;5076550;28;19916;-81
2022/01/06 10:07:10;;;;;;;;;;;;;;;11.74;53.82;100609.66;5082442;28;19916;-82
2022/01/06 10:10:03;;;;;;;;;;;;;;;11.43;54.29;100603.59;5086799;28;19912;-80
2022/01/06 10:12:54;;;;;;;;;;;;;;;11.81;53.85;100604.50;5066993;28;19920;-78
2022/01/06 10:15:39;;;;;;;;;;;;;;;11.90;54.04;100607.19;5073510;28;19913;-80
2022/01/06 10:18:23;;;;;;;;;;;;;;;11.73;52.75;100610.81;5077295;28;20307;-81
2022/01/06 10:21:13;;;;;;;;;;;;;;;11.67;52.64;100605.81;5084026;28;20388;-81
2022/01/06 10:24:02;;;;;;;;;;;;;;;11.73;53.49;100608.09;5082852;28;20290;-82
2022/01/06 10:27:06;;;;;;;;;;;;;;;12.00;52.87;100609.56;5085519;28;20490;-81
2022/01/06 10:29:52;;;;;;;;;;;;;;;11.82;52.62;100611.56;5080174;28;19912;-81
2022/01/06 10:32:38;;;;;;;;;;;;;;;11.83;53.52;100605.00;5078225;28;19916;-80
2022/01/06 10:35:22;;;;;;;;;;;;;;;11.73;52.79;100593.66;5082563;28;19912;-80
2022/01/06 10:38:07;;;;;;;;;;;;;;;11.99;53.46;100597.06;5079115;28;19920;-81
2022/01/06 10:40:51;;;;;;;;;;;;;;;11.46;53.89;100600.25;5079732;28;19912;-80
2022/01/06 10:43:35;;;;;;;;;;;;;;;11.69;53.61;100579.03;5083966;28;20331;-80
2022/01/06 10:46:27;;;;;;;;;;;;;;;11.21;54.71;100590.22;5082766;28;19912;-81
2022/01/06 10:49:12;;;;;;;;;;;;;;;11.22;53.92;100584.47;5080622;28;19916;-81
2022/01/06 10:51:59;;;;;;;;;;;;;;;11.13;55.01;100595.34;5087389;28;19916;-81
2022/01/06 10:54:43;;;;;;;;;;;;;;;11.54;54.64;100600.22;5088115;28;19916;-80
2022/01/06 10:57:28;;;;;;;;;;;;;;;11.72;53.47;100600.19;5062210;28;19913;-80
2022/01/06 11:00:15;;;;;;;;;;;;;;;11.73;55.81;100597.19;5067190;28;19916;-80
2022/01/06 11:03:26;;;;;;;;;;;;;;;12.02;55.38;100603.78;5064608;28;19916;-82
2022/01/06 11:06:10;;;;;;;;;;;;;;;9.57;58.48;100608.03;5055021;28;19913;-75
2022/01/06 11:08:55;;;;;;;;;;;;;;;8.89;61.11;100593.69;5058754;28;20289;-74
2022/01/06 11:14:38;;;;;;;;;;;;;;;8.83;62.39;100594.94;5054170;28;19921;-76
2022/01/06 11:17:24;;;;;;;;;;;;;;;8.62;62.34;100604.63;5053885;28;19913;-75
2022/01/06 11:20:09;;;;;;;;;;;;;;;8.28;62.79;100602.31;5056758;28;20301;-76
2022/01/06 11:22:55;;;;;;;;;;;;;;;8.13;64.46;100603.44;5054272;28;19913;-76
2022/01/06 11:25:39;;;;;;;;;;;;;;;8.26;64.58;100606.44;5058878;28;19916;-76
2022/01/06 11:28:29;;;;;;;;;;;;;;;8.31;65.39;100604.47;5057148;28;19913;-78
2022/01/06 11:31:18;;;;;;;;;;;;;;;8.29;63.90;100600.41;5054398;28;19912;-76
2022/01/06 11:34:17;;;;;;;;;;;;;;;8.20;65.25;100594.91;5076459;28;19912;-76
2022/01/06 11:37:08;;;;;;;;;;;;;;;8.35;64.84;100588.41;5075901;28;19916;-75
2022/01/06 11:40:01;;;;;;;;;;;;;;;8.06;65.33;100584.09;5079621;28;19913;-75
2022/01/06 11:42:55;;;;;;;;;;;;;;;8.18;65.22;100586.25;5076986;28;20296;-75
2022/01/06 11:45:39;;;;;;;;;;;;;;;8.20;64.70;100586.78;5074315;28;19916;-74
2022/01/06 11:48:24;;;;;;;;;;;;;;;8.40;63.56;100582.88;5078768;28;19912;-75
2022/01/06 11:51:08;;;;;;;;;;;;;;;8.39;63.01;100578.56;5076542;28;20377;-75
2022/01/06 11:53:53;;;;;;;;;;;;;;;8.35;63.67;100577.56;5074687;28;19912;-75
2022/01/06 11:56:45;;;;;;;;;;;;;;;8.33;63.60;100577.06;5078091;28;19912;-75
2022/01/06 11:59:34;;;;;;;;;;;;;;;8.49;63.78;100583.75;5076735;28;19917;-75
2022/01/06 12:02:20;;;;;;;;;;;;;;;8.65;64.02;100576.09;5073862;28;19912;-75
2022/01/06 12:05:04;;;;;;;;;;;;;;;8.76;64.03;100580.97;5077586;28;19912;-75
2022/01/06 12:07:53;;;;;;;;;;;;;;;8.77;63.24;100582.59;5074591;28;19912;-75
2022/01/06 12:10:39;;;;;;;;;;;;;;;8.85;63.70;100575.63;5074319;28;19913;-75
2022/01/06 12:13:24;;;;;;;;;;;;;;;8.67;62.32;100576.59;5073460;28;19920;-75
2022/01/06 12:16:08;;;;;;;;;;;;;;;8.69;63.25;100577.88;5067472;28;19912;-75
2022/01/06 12:18:53;;;;;;;;;;;;;;;8.91;63.00;100580.63;5070165;28;19913;-75
2022/01/06 12:21:38;;;;;;;;;;;;;;;8.96;61.68;100577.78;5077585;28;20364;-76
2022/01/06 12:24:22;;;;;;;;;;;;;;;9.08;61.32;100574.53;5068253;28;19912;-75
2022/01/06 12:27:07;;;;;;;;;;;;;;;8.98;61.71;100572.06;5073855;28;20299;-75
2022/01/06 12:29:53;;;;;;;;;;;;;;;9.19;60.25;100565.03;5077893;28;19916;-75
2022/01/06 12:32:38;;;;;;;;;;;;;;;9.15;60.96;100568.66;5056263;28;19917;-75
2022/01/06 12:35:39;;;;;;;;;;;;;;;9.29;60.11;100570.22;5053855;28;19913;-75
2022/01/06 12:38:26;;;;;;;;;;;;;;;9.32;60.28;100575.00;5057562;28;19913;-76
2022/01/06 12:41:11;;;;;;;;;;;;;;;9.35;60.63;100563.53;5069745;28;19912;-76
2022/01/06 12:43:57;;;;;;;;;;;;;;;9.33;61.28;100573.09;5072661;28;19912;-76
2022/01/06 12:46:42;;;;;;;;;;;;;;;9.57;59.64;100562.69;5077017;28;19912;-74
2022/01/06 12:49:28;;;;;;;;;;;;;;;9.42;60.15;100563.91;5075198;28;20384;-75
2022/01/06 12:52:13;;;;;;;;;;;;;;;9.51;58.42;100563.13;5073106;28;19916;-75
2022/01/06 12:54:58;;;;;;;;;;;;;;;9.52;58.43;100562.03;5073414;28;20288;-75
2022/01/06 12:57:49;;;;;;;;;;;;;;;9.65;56.97;100561.16;5071206;28;19917;-75
2022/01/06 13:00:33;;;;;;;;;;;;;;;9.87;56.08;100564.59;5069975;28;20380;-75
2022/01/06 13:03:25;;;;;;;;;;;;;;;9.85;56.61;100566.03;5073264;28;20323;-75
2022/01/06 13:06:10;;;;;;;;;;;;;;;10.16;58.36;100565.97;5073382;28;19913;-75
2022/01/06 13:08:57;;;;;;;;;;;;;;;10.75;56.73;100563.66;5072431;28;19913;-76
2022/01/06 13:11:47;;;;;;;;;;;;;;;18.32;36.74;100580.56;5072091;28;19917;-75
2022/01/06 13:14:36;;;;;;;;;;;;;;;22.77;28.40;100584.56;5066860;28;19920;-75
2022/01/06 13:17:30;;;;;;;;;;;;;;;24.44;25.03;100589.06;5058281;28;19912;-76
2022/01/06 13:20:15;;;;;;;;;;;;;;;24.59;23.10;100590.50;5060507;28;19920;-74
2022/01/06 13:23:41;;;;;;;;;;;;;;;26.96;21.29;100592.50;5066660;28;19917;-76
2022/01/06 13:26:16;;;;;;;;;;;;;;;26.34;22.03;100590.47;5074268;28;19912;-76
2022/01/06 13:29:00;;;;;;;;;;;;;;;25.55;21.73;100596.50;5074176;28;20227;-76
2022/01/06 13:31:55;;;;;;;;;;;;;;;22.53;26.35;100594.50;5066212;28;19916;-76
2022/01/06 13:34:44;;;;;;;;;;;;;;;17.90;32.85;100584.22;5069503;28;19916;-76
2022/01/06 13:37:29;;;;;;;;;;;;;;;15.76;37.88;100582.75;5051350;28;19913;-76
2022/01/06 13:40:15;;;;;;;;;;;;;;;14.49;41.44;100593.63;5052968;28;19913;-76
2022/01/06 13:43:00;;;;;;;;;;;;;;;14.06;45.22;100596.13;5056861;28;19921;-76
2022/01/06 13:45:47;;;;;;;;;;;;;;;13.54;45.09;100588.53;5054636;28;19913;-78
2022/01/06 13:48:40;;;;;;;;;;;;;;;13.35;46.27;100595.66;5063770;28;19927;-76
2022/01/06 13:51:28;;;;;;;;;;;;;;;13.25;46.81;100599.63;5075506;28;20369;-76
2022/01/06 13:54:13;;;;;;;;;;;;;;;13.21;46.37;100604.94;5073888;28;19920;-76
2022/01/06 13:57:10;;;;;;;;;;;;;;;13.17;47.27;100604.00;5071895;28;19912;-76
2022/01/06 13:59:56;;;;;;;;;;;;;;;13.13;46.38;100611.28;5075592;28;19912;-76
2022/01/06 14:02:41;;;;;;;;;;;;;;;13.05;46.96;100608.59;5073783;28;19917;-76
2022/01/06 14:05:26;;;;;;;;;;;;;;;13.12;47.33;100615.13;5071825;28;20360;-76
2022/01/06 14:08:10;;;;;;;;;;;;;;;12.97;46.33;100614.91;5071925;28;20303;-76
2022/01/06 14:10:55;;;;;;;;;;;;;;;12.97;46.49;100617.63;5073836;28;19912;-76
2022/01/06 14:13:39;;;;;;;;;;;;;;;13.03;46.35;100610.84;5071440;28;19916;-76
2022/01/06 14:16:24;;;;;;;;;;;;;;;13.13;47.23;100618.66;5076204;28;19912;-76
2022/01/06 14:19:08;;;;;;;;;;;;;;;13.06;48.00;100621.09;5074210;28;19912;-76
2022/01/06 14:21:52;;;;;;;;;;;;;;;12.94;47.96;100621.84;5072263;28;20368;-76
2022/01/06 14:24:37;;;;;;;;;;;;;;;12.99;47.47;100620.84;5061065;28;20300;-76